Time;durP1;ratioP1;P1;durP2;ratioP2;P2;SDS_P1;SDS_P2;PMS_P1;PMS_P2;Temp;Humidity;BMP_temperature;BMP_pressure;BME280_temperature;BME280_humidity;BME280_pressure;Samples;Min_cycle;Max_cycle;Signal;HPM_P1;HPM_P2
2022/12/11 00:01:12;;;;;;;79.22;21.13;;;;;;;;;;5033429;28;20493;-75
2022/12/11 00:03:38;;;;;;;78.38;21.90;;;;;;;;;;5034203;28;20061;-76
2022/12/11 00:06:09;;;;;;;91.32;23.23;;;;;;;;;;5033886;28;20379;-75
2022/12/11 00:08:35;;;;;;;86.95;22.92;;;;;;;;;;5033340;28;20080;-75
2022/12/11 00:11:02;;;;;;;81.57;22.08;;;;;;;;;;5032053;28;20052;-75
2022/12/11 00:13:28;;;;;;;105.65;23.33;;;;;;;;;;5034527;28;20045;-75
2022/12/11 00:15:54;;;;;;;92.35;22.52;;;;;;;;;;5033788;28;20065;-75
2022/12/11 00:18:20;;;;;;;86.65;22.30;;;;;;;;;;5034594;28;20037;-75
2022/12/11 00:20:46;;;;;;;102.65;23.15;;;;;;;;;;5034233;28;20111;-75
2022/12/11 00:23:13;;;;;;;93.72;20.88;;;;;;;;;;5032704;28;20124;-76
2022/12/11 00:25:45;;;;;;;101.07;22.90;;;;;;;;;;5030816;28;20150;-75
2022/12/11 00:28:12;;;;;;;105.30;25.20;;;;;;;;;;5034024;28;20080;-76
2022/12/11 00:30:39;;;;;;;72.90;21.27;;;;;;;;;;5029049;28;20560;-76
2022/12/11 00:33:05;;;;;;;85.97;20.83;;;;;;;;;;5029643;28;20041;-76
2022/12/11 00:35:31;;;;;;;108.38;24.10;;;;;;;;;;5033508;28;20117;-76
2022/12/11 00:37:57;;;;;;;106.13;23.55;;;;;;;;;;5033713;28;20558;-75
2022/12/11 00:40:23;;;;;;;82.53;20.98;;;;;;;;;;5032831;28;20056;-76
2022/12/11 00:42:50;;;;;;;98.63;22.50;;;;;;;;;;5037705;28;20069;-76
2022/12/11 00:45:16;;;;;;;73.75;22.42;;;;;;;;;;5036146;28;20556;-76
2022/12/11 00:47:42;;;;;;;75.32;21.08;;;;;;;;;;5032870;28;20049;-76
2022/12/11 00:50:08;;;;;;;73.13;21.42;;;;;;;;;;5033514;28;20112;-76
2022/12/11 00:52:34;;;;;;;105.05;24.23;;;;;;;;;;5033990;28;20440;-76
2022/12/11 00:55:00;;;;;;;72.90;20.55;;;;;;;;;;5031133;28;20121;-76
2022/12/11 00:57:26;;;;;;;97.65;23.55;;;;;;;;;;5018999;28;20099;-76
2022/12/11 00:59:52;;;;;;;83.70;21.60;;;;;;;;;;5033823;28;20099;-76
2022/12/11 01:02:18;;;;;;;87.32;21.30;;;;;;;;;;5031757;28;20045;-76
2022/12/11 01:04:44;;;;;;;91.40;22.10;;;;;;;;;;5030833;28;20042;-76
2022/12/11 01:07:10;;;;;;;90.35;22.45;;;;;;;;;;5032160;28;20049;-76
2022/12/11 01:12:21;;;;;;;82.65;22.08;;;;;;;;;;5025315;28;20055;-76
2022/12/11 01:14:47;;;;;;;80.43;22.80;;;;;;;;;;5031964;28;20065;-76
2022/12/11 01:17:13;;;;;;;74.07;20.10;;;;;;;;;;5033655;28;20481;-76
2022/12/11 01:19:42;;;;;;;76.10;21.10;;;;;;;;;;5031950;28;20049;-76
2022/12/11 01:22:08;;;;;;;71.30;21.02;;;;;;;;;;5032540;28;20045;-76
2022/12/11 01:24:34;;;;;;;78.50;21.63;;;;;;;;;;5033484;28;20492;-76
2022/12/11 01:27:01;;;;;;;80.40;20.73;;;;;;;;;;5033518;28;20041;-76
2022/12/11 01:29:27;;;;;;;66.78;18.10;;;;;;;;;;5033208;28;20041;-76
2022/12/11 01:31:53;;;;;;;72.88;20.08;;;;;;;;;;5031716;28;20124;-76
2022/12/11 01:34:19;;;;;;;71.32;19.58;;;;;;;;;;5033358;28;20045;-76
2022/12/11 01:36:45;;;;;;;62.97;19.15;;;;;;;;;;5031490;28;20098;-76
2022/12/11 01:39:11;;;;;;;65.72;18.85;;;;;;;;;;5032993;28;20128;-76
2022/12/11 01:41:37;;;;;;;67.15;21.10;;;;;;;;;;5032434;28;20141;-75
2022/12/11 01:44:08;;;;;;;74.32;20.88;;;;;;;;;;5033313;28;20120;-76
2022/12/11 01:46:35;;;;;;;67.10;20.10;;;;;;;;;;5020818;28;20073;-76
2022/12/11 01:49:03;;;;;;;60.13;18.73;;;;;;;;;;5033012;28;20124;-76
2022/12/11 01:51:31;;;;;;;70.68;19.42;;;;;;;;;;5045880;28;20041;-76
2022/12/11 01:54:00;;;;;;;69.03;20.63;;;;;;;;;;5033327;28;20497;-76
2022/12/11 01:56:27;;;;;;;68.32;22.17;;;;;;;;;;5033140;28;20072;-76
2022/12/11 01:58:55;;;;;;;68.97;19.95;;;;;;;;;;5033071;28;20051;-76
2022/12/11 02:01:29;;;;;;;64.75;20.73;;;;;;;;;;5027848;28;20120;-76
2022/12/11 02:03:55;;;;;;;66.72;20.58;;;;;;;;;;5031208;28;20044;-76
2022/12/11 02:06:53;;;;;;;62.85;21.23;;;;;;;;;;5037119;28;20039;-76
2022/12/11 02:09:39;;;;;;;60.88;20.17;;;;;;;;;;4996780;28;20060;-76
2022/12/11 02:12:20;;;;;;;64.18;19.85;;;;;;;;;;5033210;28;20057;-76
2022/12/11 02:14:59;;;;;;;66.25;18.92;;;;;;;;;;5031826;28;20041;-76
2022/12/11 02:17:38;;;;;;;65.82;20.30;;;;;;;;;;5032606;28;20057;-76
2022/12/11 02:20:07;;;;;;;61.55;18.63;;;;;;;;;;5022809;28;20363;-76
2022/12/11 02:22:34;;;;;;;59.28;19.38;;;;;;;;;;5031143;28;20045;-76
2022/12/11 02:25:14;;;;;;;62.33;19.63;;;;;;;;;;5032925;28;20401;-76
2022/12/11 02:27:40;;;;;;;64.68;20.13;;;;;;;;;;5021849;28;20057;-76
2022/12/11 02:30:08;;;;;;;70.43;19.58;;;;;;;;;;5028537;28;20049;-76
2022/12/11 02:32:39;;;;;;;62.20;19.90;;;;;;;;;;5034192;28;20054;-76
2022/12/11 02:35:08;;;;;;;61.15;20.05;;;;;;;;;;5032321;28;20065;-76
2022/12/11 02:37:37;;;;;;;61.65;19.55;;;;;;;;;;5026286;28;20472;-75
2022/12/11 02:40:05;;;;;;;61.90;20.17;;;;;;;;;;5021047;28;20512;-75
2022/12/11 02:42:32;;;;;;;58.60;17.83;;;;;;;;;;5036539;28;20042;-75
2022/12/11 02:44:59;;;;;;;60.92;17.92;;;;;;;;;;5035528;28;20413;-75
2022/12/11 02:47:27;;;;;;;59.47;18.95;;;;;;;;;;5035906;28;20067;-75
2022/12/11 02:49:54;;;;;;;83.55;21.52;;;;;;;;;;5036189;28;20045;-75
2022/12/11 02:52:23;;;;;;;63.47;19.52;;;;;;;;;;5036215;28;20109;-75
2022/12/11 02:54:50;;;;;;;69.82;20.70;;;;;;;;;;5023694;28;20049;-76
2022/12/11 02:57:18;;;;;;;66.65;18.63;;;;;;;;;;5014616;28;20050;-76
2022/12/11 02:59:45;;;;;;;74.80;20.67;;;;;;;;;;5026829;28;20088;-76
2022/12/11 03:02:12;;;;;;;71.78;20.75;;;;;;;;;;5024136;28;20442;-76
2022/12/11 03:04:39;;;;;;;65.03;20.25;;;;;;;;;;5046796;28;20048;-76
2022/12/11 03:07:24;;;;;;;72.88;21.63;;;;;;;;;;5035561;28;20069;-76
2022/12/11 03:09:51;;;;;;;59.78;19.58;;;;;;;;;;5035553;28;20085;-76
2022/12/11 03:12:37;;;;;;;70.40;19.83;;;;;;;;;;5035303;28;20049;-76
2022/12/11 03:15:05;;;;;;;70.43;20.98;;;;;;;;;;5022821;28;20116;-76
2022/12/11 03:18:01;;;;;;;68.32;20.58;;;;;;;;;;5035663;28;20037;-76
2022/12/11 03:20:28;;;;;;;64.80;19.83;;;;;;;;;;4996209;28;20133;-76
2022/12/11 03:23:02;;;;;;;60.05;19.45;;;;;;;;;;4998014;28;20046;-76
2022/12/11 03:25:35;;;;;;;62.33;20.23;;;;;;;;;;4993151;28;20073;-76
2022/12/11 03:28:09;;;;;;;69.30;19.08;;;;;;;;;;5003735;28;20046;-76
2022/12/11 03:30:36;;;;;;;65.53;20.55;;;;;;;;;;4977490;28;20109;-76
2022/12/11 03:33:04;;;;;;;70.55;20.23;;;;;;;;;;4993635;28;20541;-76
2022/12/11 03:35:35;;;;;;;73.68;21.75;;;;;;;;;;4995713;28;20498;-76
2022/12/11 03:38:04;;;;;;;81.38;23.38;;;;;;;;;;4993489;28;20054;-76
2022/12/11 03:40:32;;;;;;;72.03;20.00;;;;;;;;;;4992761;28;20048;-76
2022/12/11 03:42:59;;;;;;;82.70;22.38;;;;;;;;;;4991805;28;20049;-76
2022/12/11 03:45:25;;;;;;;81.50;22.38;;;;;;;;;;5007928;28;20595;-76
2022/12/11 03:47:53;;;;;;;93.90;23.88;;;;;;;;;;4997801;28;20046;-76
2022/12/11 03:50:20;;;;;;;81.25;22.35;;;;;;;;;;4994968;28;20054;-76
2022/12/11 03:52:47;;;;;;;76.20;22.45;;;;;;;;;;5002012;28;20040;-76
2022/12/11 03:55:14;;;;;;;86.68;24.38;;;;;;;;;;5001994;28;20042;-76
2022/12/11 03:57:40;;;;;;;98.70;24.33;;;;;;;;;;5027468;28;20072;-76
2022/12/11 04:00:08;;;;;;;73.28;21.88;;;;;;;;;;5020920;28;20161;-76
2022/12/11 04:02:34;;;;;;;80.18;20.90;;;;;;;;;;5020931;28;20172;-76
2022/12/11 04:05:00;;;;;;;86.68;23.90;;;;;;;;;;5034781;28;20048;-76
2022/12/11 04:07:26;;;;;;;76.47;21.98;;;;;;;;;;5040609;28;20045;-76
2022/12/11 04:09:52;;;;;;;80.53;22.08;;;;;;;;;;5027940;28;20436;-76
2022/12/11 04:12:18;;;;;;;91.70;23.52;;;;;;;;;;5033375;28;20057;-76
2022/12/11 04:15:02;;;;;;;78.50;22.33;;;;;;;;;;5033397;28;20048;-76
2022/12/11 04:25:47;;;;;;;79.95;21.65;;;;;;;;;;5025028;28;20561;-76
2022/12/11 04:28:13;;;;;;;83.97;22.48;;;;;;;;;;5034284;28;20041;-76
2022/12/11 04:30:40;;;;;;;82.32;22.92;;;;;;;;;;5034158;28;20041;-76
2022/12/11 04:33:06;;;;;;;75.68;22.15;;;;;;;;;;5034327;28;20056;-76
2022/12/11 04:35:32;;;;;;;75.55;20.92;;;;;;;;;;5034163;28;20037;-76
2022/12/11 04:37:58;;;;;;;86.85;24.02;;;;;;;;;;5032789;28;20052;-76
2022/12/11 04:40:24;;;;;;;76.43;22.08;;;;;;;;;;5032333;28;20045;-76
2022/12/11 04:42:50;;;;;;;84.18;22.33;;;;;;;;;;5032586;28;20044;-76
2022/12/11 04:45:17;;;;;;;88.55;23.67;;;;;;;;;;5046661;28;20048;-76
2022/12/11 04:47:43;;;;;;;77.95;23.42;;;;;;;;;;5032626;28;20119;-76
2022/12/11 04:50:11;;;;;;;84.70;23.27;;;;;;;;;;5033559;28;20045;-76
2022/12/11 04:52:37;;;;;;;86.75;22.20;;;;;;;;;;5023285;28;20041;-76
2022/12/11 04:55:04;;;;;;;84.25;22.92;;;;;;;;;;5032772;28;20441;-76
2022/12/11 04:57:30;;;;;;;97.93;23.77;;;;;;;;;;5033705;28;20099;-76
2022/12/11 04:59:56;;;;;;;87.50;23.02;;;;;;;;;;5032181;28;20045;-76
2022/12/11 05:02:22;;;;;;;78.03;21.92;;;;;;;;;;5032492;28;20080;-76
2022/12/11 05:04:48;;;;;;;80.95;21.50;;;;;;;;;;5033445;28;20128;-76
2022/12/11 05:07:14;;;;;;;93.38;24.13;;;;;;;;;;5032849;28;20046;-76
2022/12/11 05:09:40;;;;;;;79.95;20.38;;;;;;;;;;5031955;28;20053;-76
2022/12/11 05:12:06;;;;;;;89.60;21.73;;;;;;;;;;5033596;28;20132;-76
2022/12/11 05:14:32;;;;;;;73.45;21.52;;;;;;;;;;5033359;28;20473;-76
2022/12/11 05:16:59;;;;;;;85.03;22.42;;;;;;;;;;5033100;28;20432;-76
2022/12/11 05:19:25;;;;;;;91.65;23.98;;;;;;;;;;5011406;28;20535;-76
2022/12/11 05:21:51;;;;;;;94.18;23.58;;;;;;;;;;5026049;28;20042;-76
2022/12/11 05:24:17;;;;;;;81.47;22.58;;;;;;;;;;5046412;28;20047;-76
2022/12/11 05:26:43;;;;;;;84.80;22.73;;;;;;;;;;5033885;28;20045;-76
2022/12/11 05:29:09;;;;;;;76.30;21.40;;;;;;;;;;5044291;28;20041;-76
2022/12/11 05:31:35;;;;;;;84.22;23.20;;;;;;;;;;5035787;28;20099;-76
2022/12/11 05:34:02;;;;;;;91.43;23.38;;;;;;;;;;5032880;28;20037;-76
2022/12/11 05:36:29;;;;;;;81.47;22.95;;;;;;;;;;5033044;28;20081;-75
2022/12/11 05:38:57;;;;;;;80.63;23.25;;;;;;;;;;5033185;28;20041;-75
2022/12/11 05:41:24;;;;;;;87.30;24.73;;;;;;;;;;5032477;28;20049;-75
2022/12/11 05:43:50;;;;;;;79.88;22.75;;;;;;;;;;5032239;28;20037;-76
2022/12/11 05:46:19;;;;;;;90.47;23.08;;;;;;;;;;5033232;28;20540;-76
2022/12/11 05:48:46;;;;;;;73.22;21.63;;;;;;;;;;5032569;28;20042;-76
2022/12/11 05:51:14;;;;;;;77.85;22.45;;;;;;;;;;5032722;28;20457;-76
2022/12/11 05:53:41;;;;;;;88.38;24.30;;;;;;;;;;5031331;28;20063;-76
2022/12/11 05:56:09;;;;;;;79.40;22.70;;;;;;;;;;5032664;28;20504;-76
2022/12/11 05:58:35;;;;;;;82.40;24.08;;;;;;;;;;5046861;28;20037;-76
2022/12/11 06:01:02;;;;;;;77.38;21.45;;;;;;;;;;5032806;28;20049;-76
2022/12/11 06:03:28;;;;;;;70.03;21.10;;;;;;;;;;5032220;28;20114;-76
2022/12/11 06:05:54;;;;;;;85.60;21.90;;;;;;;;;;5036272;28;20116;-76
2022/12/11 06:08:20;;;;;;;69.25;21.20;;;;;;;;;;5048843;28;20133;-76
2022/12/11 06:10:50;;;;;;;78.65;22.88;;;;;;;;;;5036491;28;20053;-76
2022/12/11 06:13:17;;;;;;;83.88;22.13;;;;;;;;;;5032980;28;20049;-76
2022/12/11 06:15:43;;;;;;;70.88;21.80;;;;;;;;;;5035848;28;20049;-76
2022/12/11 06:18:09;;;;;;;77.22;22.17;;;;;;;;;;5035745;28;20053;-76
2022/12/11 06:20:35;;;;;;;78.57;22.60;;;;;;;;;;5026071;28;20046;-76
2022/12/11 06:23:02;;;;;;;65.72;20.67;;;;;;;;;;5032832;28;20493;-76
2022/12/11 06:25:28;;;;;;;72.97;22.25;;;;;;;;;;5030669;28;20533;-76
2022/12/11 06:27:54;;;;;;;82.13;23.77;;;;;;;;;;5032811;28;20042;-76
2022/12/11 06:30:20;;;;;;;71.97;20.40;;;;;;;;;;5036696;28;20084;-76
2022/12/11 06:32:46;;;;;;;72.07;20.55;;;;;;;;;;5035810;28;20039;-76
2022/12/11 06:35:13;;;;;;;77.95;22.77;;;;;;;;;;5035055;28;20077;-76
2022/12/11 06:37:39;;;;;;;72.43;21.73;;;;;;;;;;5035034;28;20037;-76
2022/12/11 06:40:06;;;;;;;64.40;20.30;;;;;;;;;;5017878;28;20043;-76
2022/12/11 06:42:32;;;;;;;66.57;20.52;;;;;;;;;;5035107;28;20049;-76
2022/12/11 06:44:58;;;;;;;62.80;20.58;;;;;;;;;;5036149;28;20053;-76
2022/12/11 06:47:31;;;;;;;69.88;20.75;;;;;;;;;;5035612;28;20100;-76
2022/12/11 06:49:57;;;;;;;73.40;21.77;;;;;;;;;;5037454;28;20319;-76
2022/12/11 06:52:24;;;;;;;73.35;22.52;;;;;;;;;;5040791;28;20528;-76
2022/12/11 06:54:50;;;;;;;68.57;20.10;;;;;;;;;;5045604;28;20438;-75
2022/12/11 06:57:16;;;;;;;64.32;19.85;;;;;;;;;;5026755;28;20101;-76
2022/12/11 06:59:43;;;;;;;57.83;19.02;;;;;;;;;;5027134;28;20045;-75
2022/12/11 07:02:13;;;;;;;65.05;19.38;;;;;;;;;;5035749;28;20052;-77
2022/12/11 07:04:39;;;;;;;69.97;22.35;;;;;;;;;;5034530;28;20053;-76
2022/12/11 07:07:06;;;;;;;68.03;20.25;;;;;;;;;;5035500;28;20044;-76
2022/12/11 07:09:32;;;;;;;67.05;19.33;;;;;;;;;;5035842;28;20490;-76
2022/12/11 07:11:58;;;;;;;63.33;19.40;;;;;;;;;;5035714;28;20053;-76
2022/12/11 07:14:24;;;;;;;56.10;19.52;;;;;;;;;;5035723;28;20053;-76
2022/12/11 07:16:50;;;;;;;62.85;19.45;;;;;;;;;;5033242;28;20430;-75
2022/12/11 07:19:16;;;;;;;68.53;19.88;;;;;;;;;;5034384;28;20121;-76
2022/12/11 07:21:42;;;;;;;67.85;20.05;;;;;;;;;;5035563;28;20041;-75
2022/12/11 07:24:09;;;;;;;64.00;20.70;;;;;;;;;;5035489;28;20053;-75
2022/12/11 07:26:35;;;;;;;65.35;18.48;;;;;;;;;;5034236;28;20046;-76
2022/12/11 07:29:01;;;;;;;63.25;19.17;;;;;;;;;;5034400;28;20129;-76
2022/12/11 07:31:28;;;;;;;55.47;19.63;;;;;;;;;;5033949;28;20081;-75
2022/12/11 07:33:58;;;;;;;61.00;19.58;;;;;;;;;;5034219;28;20044;-75
2022/12/11 07:36:25;;;;;;;56.60;18.38;;;;;;;;;;5030359;28;20045;-76
2022/12/11 07:38:51;;;;;;;54.00;18.35;;;;;;;;;;5035606;28;20128;-75
2022/12/11 07:41:17;;;;;;;62.78;19.08;;;;;;;;;;5029180;28;20053;-76
2022/12/11 07:43:44;;;;;;;63.85;19.90;;;;;;;;;;5032464;28;20037;-76
2022/12/11 07:46:11;;;;;;;60.17;20.88;;;;;;;;;;5032686;28;20095;-76
2022/12/11 07:48:38;;;;;;;56.40;19.00;;;;;;;;;;5034147;28;20052;-75
2022/12/11 07:51:25;;;;;;;60.83;19.63;;;;;;;;;;5033559;28;20052;-76
2022/12/11 07:53:51;;;;;;;58.45;18.65;;;;;;;;;;5034967;28;20049;-75
2022/12/11 07:56:18;;;;;;;65.05;19.45;;;;;;;;;;5034849;28;20049;-75
2022/12/11 07:58:45;;;;;;;57.25;19.77;;;;;;;;;;5033655;28;20057;-75
2022/12/11 08:01:12;;;;;;;52.15;19.52;;;;;;;;;;5034471;28;20053;-75
2022/12/11 08:03:38;;;;;;;60.80;19.63;;;;;;;;;;5013223;28;20132;-75
2022/12/11 08:06:04;;;;;;;70.00;19.52;;;;;;;;;;5034611;28;20454;-76
2022/12/11 08:08:30;;;;;;;50.50;18.20;;;;;;;;;;5034055;28;20071;-76
2022/12/11 08:11:00;;;;;;;58.92;20.33;;;;;;;;;;5033191;28;20054;-76
2022/12/11 08:13:26;;;;;;;63.05;20.35;;;;;;;;;;5034259;28;20037;-76
2022/12/11 08:15:52;;;;;;;57.45;19.23;;;;;;;;;;5034478;28;20594;-76
2022/12/11 08:18:18;;;;;;;63.65;19.25;;;;;;;;;;5028270;28;20041;-76
2022/12/11 08:20:44;;;;;;;59.00;19.08;;;;;;;;;;5024988;28;20053;-76
2022/12/11 08:23:10;;;;;;;61.45;19.70;;;;;;;;;;5037224;28;20049;-76
2022/12/11 08:25:36;;;;;;;61.40;20.38;;;;;;;;;;5034010;28;20056;-76
2022/12/11 08:28:02;;;;;;;66.32;20.00;;;;;;;;;;5018829;28;20096;-76
2022/12/11 08:30:29;;;;;;;57.60;19.33;;;;;;;;;;5030570;28;20056;-75
2022/12/11 08:32:55;;;;;;;56.78;18.92;;;;;;;;;;5030200;28;20124;-76
2022/12/11 08:35:21;;;;;;;57.35;20.67;;;;;;;;;;5022932;28;20037;-77
2022/12/11 08:37:47;;;;;;;60.80;20.95;;;;;;;;;;5033387;28;20045;-76
2022/12/11 08:40:13;;;;;;;56.30;19.85;;;;;;;;;;5016250;28;20044;-76
2022/12/11 08:42:39;;;;;;;64.70;20.80;;;;;;;;;;5033274;28;20124;-76
2022/12/11 08:45:05;;;;;;;61.65;21.40;;;;;;;;;;5034129;28;20068;-76
2022/12/11 08:47:31;;;;;;;56.72;20.27;;;;;;;;;;5013822;28;20041;-77
2022/12/11 08:49:57;;;;;;;57.35;20.17;;;;;;;;;;5035510;28;20049;-75
2022/12/11 08:52:24;;;;;;;60.08;19.58;;;;;;;;;;5032894;28;20042;-75
2022/12/11 08:54:50;;;;;;;58.17;20.30;;;;;;;;;;5034106;28;20045;-75
2022/12/11 08:57:16;;;;;;;66.43;20.92;;;;;;;;;;5033827;28;20033;-75
2022/12/11 08:59:42;;;;;;;62.72;20.33;;;;;;;;;;5032383;28;20389;-75
2022/12/11 09:02:11;;;;;;;73.85;22.90;;;;;;;;;;5031700;28;20504;-75
2022/12/11 09:04:37;;;;;;;60.72;21.05;;;;;;;;;;5016316;28;20033;-75
2022/12/11 09:07:04;;;;;;;60.70;19.77;;;;;;;;;;5016261;28;20049;-75
2022/12/11 09:09:30;;;;;;;59.63;18.90;;;;;;;;;;5033389;28;20054;-75
2022/12/11 09:11:56;;;;;;;67.57;21.80;;;;;;;;;;5033672;28;20053;-75
2022/12/11 09:14:22;;;;;;;63.78;21.65;;;;;;;;;;5033756;28;20046;-75
2022/12/11 09:16:48;;;;;;;56.33;19.85;;;;;;;;;;5026774;28;20052;-75
2022/12/11 09:19:16;;;;;;;59.80;21.27;;;;;;;;;;5025473;28;20492;-75
2022/12/11 09:21:43;;;;;;;60.22;20.50;;;;;;;;;;5032337;28;20385;-75
2022/12/11 09:24:09;;;;;;;65.68;22.13;;;;;;;;;;5033316;28;20142;-75
2022/12/11 09:26:35;;;;;;;60.67;20.58;;;;;;;;;;5033236;28;20144;-75
2022/12/11 09:29:05;;;;;;;60.83;20.88;;;;;;;;;;5032194;28;20049;-75
2022/12/11 09:31:32;;;;;;;67.63;22.70;;;;;;;;;;5032539;28;20038;-75
2022/12/11 09:34:00;;;;;;;57.25;20.50;;;;;;;;;;5032999;28;20045;-75
2022/12/11 09:36:27;;;;;;;65.72;21.65;;;;;;;;;;5032223;28;20052;-75
2022/12/11 09:38:53;;;;;;;53.92;20.35;;;;;;;;;;5040462;28;20029;-75
2022/12/11 09:41:22;;;;;;;63.17;21.00;;;;;;;;;;5042808;28;20045;-75
2022/12/11 09:44:14;;;;;;;60.13;20.48;;;;;;;;;;5036360;28;20049;-75
2022/12/11 09:46:41;;;;;;;56.03;21.40;;;;;;;;;;5036665;28;20076;-75
2022/12/11 09:49:13;;;;;;;56.70;20.63;;;;;;;;;;5033039;28;20049;-75
2022/12/11 09:51:42;;;;;;;63.53;22.00;;;;;;;;;;5013824;28;20056;-75
2022/12/11 09:54:11;;;;;;;53.28;19.73;;;;;;;;;;5037114;28;20129;-75
2022/12/11 09:56:51;;;;;;;60.40;21.35;;;;;;;;;;5037964;28;20046;-76
2022/12/11 09:59:28;;;;;;;54.22;20.38;;;;;;;;;;5050457;28;20053;-75
2022/12/11 10:02:13;;;;;;;61.10;21.13;;;;;;;;;;5040507;28;20049;-76
2022/12/11 10:04:49;;;;;;;61.03;20.48;;;;;;;;;;5036012;28;20393;-76
2022/12/11 10:07:19;;;;;;;49.42;19.38;;;;;;;;;;5049742;28;20048;-76
2022/12/11 10:09:55;;;;;;;53.15;19.63;;;;;;;;;;5037441;28;20061;-76
2022/12/11 10:12:30;;;;;;;54.28;19.90;;;;;;;;;;5035793;28;20099;-76
2022/12/11 10:15:15;;;;;;;55.22;19.52;;;;;;;;;;5035957;28;20050;-75
2022/12/11 10:17:43;;;;;;;53.78;19.42;;;;;;;;;;5036894;28;20042;-75
2022/12/11 10:20:09;;;;;;;55.30;20.48;;;;;;;;;;5036403;28;20095;-75
2022/12/11 10:22:35;;;;;;;54.60;20.90;;;;;;;;;;5036857;28;20041;-76
2022/12/11 10:25:06;;;;;;;53.28;20.15;;;;;;;;;;5035498;28;20088;-76
2022/12/11 10:27:38;;;;;;;46.90;19.65;;;;;;;;;;5035745;28;20363;-75
2022/12/11 10:30:14;;;;;;;52.58;20.27;;;;;;;;;;5022320;28;20041;-75
2022/12/11 10:32:49;;;;;;;55.35;19.73;;;;;;;;;;5028796;28;20045;-75
2022/12/11 10:35:35;;;;;;;49.42;19.40;;;;;;;;;;5036645;28;20061;-75
2022/12/11 10:38:24;;;;;;;51.22;20.20;;;;;;;;;;5035346;28;20142;-76
2022/12/11 10:41:10;;;;;;;51.50;20.05;;;;;;;;;;5036094;28;20468;-76
2022/12/11 10:43:38;;;;;;;49.88;18.92;;;;;;;;;;5024558;28;20045;-75
2022/12/11 10:46:06;;;;;;;49.92;19.05;;;;;;;;;;5034296;28;20049;-75
2022/12/11 10:48:32;;;;;;;51.55;20.52;;;;;;;;;;5036209;28;20080;-75
2022/12/11 10:51:04;;;;;;;44.25;18.02;;;;;;;;;;5035824;28;20136;-75
2022/12/11 10:53:31;;;;;;;47.25;24.15;;;;;;;;;;5036107;28;20037;-75
2022/12/11 10:55:57;;;;;;;46.67;19.02;;;;;;;;;;5036063;28;20057;-75
2022/12/11 10:58:25;;;;;;;44.17;18.17;;;;;;;;;;5030652;28;20049;-76
2022/12/11 11:01:07;;;;;;;49.28;19.45;;;;;;;;;;5022852;28;20072;-76
2022/12/11 11:03:34;;;;;;;51.63;20.20;;;;;;;;;;5029550;28;20394;-76
2022/12/11 11:06:14;;;;;;;42.53;18.17;;;;;;;;;;5036693;28;20400;-76
2022/12/11 11:08:42;;;;;;;46.53;18.23;;;;;;;;;;5032570;28;20054;-77
2022/12/11 11:11:27;;;;;;;45.45;20.63;;;;;;;;;;5034369;28;20544;-77
2022/12/11 11:14:05;;;;;;;42.70;17.75;;;;;;;;;;5027852;28;20041;-77
2022/12/11 11:16:34;;;;;;;37.00;16.42;;;;;;;;;;5033244;28;20053;-77
2022/12/11 11:19:00;;;;;;;41.65;17.20;;;;;;;;;;5032797;28;20041;-77
2022/12/11 11:21:28;;;;;;;40.10;17.00;;;;;;;;;;5047850;28;20116;-77
2022/12/11 11:23:55;;;;;;;37.60;17.58;;;;;;;;;;5027297;28;20053;-77
2022/12/11 11:26:24;;;;;;;39.33;17.08;;;;;;;;;;5043376;28;20063;-77
2022/12/11 11:28:54;;;;;;;37.53;17.35;;;;;;;;;;5034772;28;20497;-77
2022/12/11 11:31:21;;;;;;;36.35;15.80;;;;;;;;;;5017540;28;20056;-77
2022/12/11 11:33:54;;;;;;;37.58;16.45;;;;;;;;;;5027024;28;20053;-77
2022/12/11 11:36:22;;;;;;;37.03;16.00;;;;;;;;;;5024671;28;20038;-77
2022/12/11 11:39:07;;;;;;;38.88;16.95;;;;;;;;;;5040559;28;20079;-77
2022/12/11 11:41:53;;;;;;;38.30;16.88;;;;;;;;;;5035435;28;20044;-77
2022/12/11 11:44:24;;;;;;;33.13;15.02;;;;;;;;;;5028313;28;20167;-77
2022/12/11 11:46:59;;;;;;;37.33;16.88;;;;;;;;;;5036474;28;20065;-77
2022/12/11 11:49:40;;;;;;;31.65;16.13;;;;;;;;;;5035097;28;20843;-77
2022/12/11 11:52:19;;;;;;;37.70;17.63;;;;;;;;;;5018090;28;20053;-77
2022/12/11 11:55:08;;;;;;;39.72;18.75;;;;;;;;;;5032752;28;20480;-77
2022/12/11 11:57:41;;;;;;;37.28;17.73;;;;;;;;;;5033223;28;20076;-77
2022/12/11 12:00:27;;;;;;;37.13;17.88;;;;;;;;;;5034959;28;20041;-77
2022/12/11 12:03:14;;;;;;;35.90;17.73;;;;;;;;;;5043099;28;20450;-77
2022/12/11 12:05:40;;;;;;;41.47;18.10;;;;;;;;;;5045747;28;20045;-77
2022/12/11 12:08:09;;;;;;;41.20;18.77;;;;;;;;;;5040010;28;20049;-77
2022/12/11 12:10:38;;;;;;;38.00;18.95;;;;;;;;;;5038412;28;20500;-77
2022/12/11 12:13:31;;;;;;;41.80;18.88;;;;;;;;;;5053427;28;20041;-77
2022/12/11 12:15:58;;;;;;;42.92;17.80;;;;;;;;;;5038449;28;20441;-78
2022/12/11 12:18:24;;;;;;;41.50;18.23;;;;;;;;;;5034807;28;20443;-77
2022/12/11 12:20:50;;;;;;;41.40;18.80;;;;;;;;;;5033578;28;20050;-78
2022/12/11 12:23:34;;;;;;;46.83;19.35;;;;;;;;;;5034798;28;20042;-77
2022/12/11 12:26:07;;;;;;;40.53;18.50;;;;;;;;;;5027767;28;20081;-77
2022/12/11 12:28:43;;;;;;;42.42;18.98;;;;;;;;;;5020549;28;20051;-77
2022/12/11 12:31:19;;;;;;;40.33;18.63;;;;;;;;;;5031970;28;20465;-77
2022/12/11 12:33:48;;;;;;;43.92;19.20;;;;;;;;;;5021598;28;20045;-77
2022/12/11 12:36:17;;;;;;;36.30;17.70;;;;;;;;;;5034018;28;20041;-77
2022/12/11 12:39:05;;;;;;;37.95;17.67;;;;;;;;;;5033764;28;20041;-77
2022/12/11 12:41:43;;;;;;;40.92;18.83;;;;;;;;;;5033093;28;20042;-78
2022/12/11 12:44:14;;;;;;;41.78;19.02;;;;;;;;;;5017762;28;20474;-79
2022/12/11 12:46:40;;;;;;;43.20;17.98;;;;;;;;;;5028931;28;20087;-79
2022/12/11 12:49:11;;;;;;;41.53;18.83;;;;;;;;;;5056204;28;20045;-78
2022/12/11 12:51:37;;;;;;;39.30;19.02;;;;;;;;;;5034892;28;20045;-78
2022/12/11 12:54:03;;;;;;;45.50;20.08;;;;;;;;;;5032276;28;20045;-77
2022/12/11 12:56:31;;;;;;;38.80;18.52;;;;;;;;;;5015756;28;20056;-77
2022/12/11 12:58:57;;;;;;;41.13;18.73;;;;;;;;;;5034085;28;20106;-77
2022/12/11 13:01:28;;;;;;;40.22;18.13;;;;;;;;;;5032168;28;20049;-77
2022/12/11 13:03:57;;;;;;;34.55;16.70;;;;;;;;;;5032552;28;20113;-77
2022/12/11 13:06:31;;;;;;;40.88;18.50;;;;;;;;;;5039591;28;20048;-77
2022/12/11 13:08:57;;;;;;;40.50;18.88;;;;;;;;;;5045227;28;20452;-77
2022/12/11 13:11:31;;;;;;;46.30;20.35;;;;;;;;;;5052806;28;20076;-77
2022/12/11 13:14:02;;;;;;;41.97;18.92;;;;;;;;;;5034216;28;20060;-77
2022/12/11 13:16:38;;;;;;;36.45;17.88;;;;;;;;;;5032799;28;20041;-77
2022/12/11 13:19:24;;;;;;;35.22;17.52;;;;;;;;;;5033910;28;20052;-77
2022/12/11 13:21:57;;;;;;;37.72;17.95;;;;;;;;;;5033473;28;20089;-77
2022/12/11 13:24:23;;;;;;;37.05;17.50;;;;;;;;;;5033838;28;20041;-77
2022/12/11 13:26:50;;;;;;;37.58;18.05;;;;;;;;;;5033805;28;20048;-76
2022/12/11 13:29:29;;;;;;;37.50;17.60;;;;;;;;;;5033109;28;20386;-76
2022/12/11 13:32:00;;;;;;;38.45;17.58;;;;;;;;;;5047788;28;20131;-76
2022/12/11 13:34:27;;;;;;;38.83;19.08;;;;;;;;;;5027402;28;20073;-77
2022/12/11 13:36:54;;;;;;;38.30;17.63;;;;;;;;;;5005162;28;20116;-77
2022/12/11 13:39:24;;;;;;;41.90;19.05;;;;;;;;;;5031740;28;20049;-77
2022/12/11 13:41:56;;;;;;;37.60;17.33;;;;;;;;;;5009712;28;20046;-77
2022/12/11 13:44:27;;;;;;;38.42;18.38;;;;;;;;;;5013497;28;20037;-77
2022/12/11 13:46:54;;;;;;;35.50;17.70;;;;;;;;;;5044378;28;20077;-77
2022/12/11 13:49:25;;;;;;;40.40;18.88;;;;;;;;;;5028738;28;20045;-77
2022/12/11 13:51:56;;;;;;;39.05;18.52;;;;;;;;;;5014960;28;20053;-77
2022/12/11 13:54:23;;;;;;;38.60;17.95;;;;;;;;;;5031714;28;20474;-77
2022/12/11 13:57:12;;;;;;;36.75;17.95;;;;;;;;;;5032317;28;20056;-77
2022/12/11 13:59:41;;;;;;;34.72;16.25;;;;;;;;;;5033137;28;20240;-77
2022/12/11 14:02:27;;;;;;;35.88;17.40;;;;;;;;;;5032533;28;20051;-77
2022/12/11 14:04:58;;;;;;;35.78;16.90;;;;;;;;;;5032803;28;20493;-77
2022/12/11 14:07:31;;;;;;;37.78;17.95;;;;;;;;;;5046927;28;20119;-77
2022/12/11 14:10:27;;;;;;;41.13;18.10;;;;;;;;;;5019857;28;20089;-77
2022/12/11 14:12:56;;;;;;;41.95;19.00;;;;;;;;;;5041103;28;20054;-77
2022/12/11 14:15:23;;;;;;;36.50;17.85;;;;;;;;;;5033804;28;20398;-77
2022/12/11 14:17:49;;;;;;;38.35;17.55;;;;;;;;;;5013127;28;20046;-77
2022/12/11 14:20:26;;;;;;;36.72;17.38;;;;;;;;;;5031042;28;20119;-77
2022/12/11 14:23:04;;;;;;;40.75;18.55;;;;;;;;;;5046823;28;20425;-77
2022/12/11 14:25:30;;;;;;;31.83;16.85;;;;;;;;;;5024345;28;20477;-77
2022/12/11 14:27:56;;;;;;;35.35;17.73;;;;;;;;;;5032275;28;20049;-77
2022/12/11 14:30:27;;;;;;;37.63;18.00;;;;;;;;;;5048127;28;20052;-77
2022/12/11 14:32:55;;;;;;;35.08;17.88;;;;;;;;;;5032281;28;20046;-77
2022/12/11 14:35:25;;;;;;;39.30;18.52;;;;;;;;;;5026587;28;20481;-77
2022/12/11 14:37:51;;;;;;;33.47;16.48;;;;;;;;;;5024382;28;20073;-77
2022/12/11 14:40:19;;;;;;;33.05;16.63;;;;;;;;;;5040153;28;20095;-77